sensor_id;sensor_type;location;lat;lon;timestamp;pressure;altitude;pressure_sealevel;temperature;humidity
10348;BME280;5220;43.192;23.284;2023-11-21T00:02:17;96732.00;;;9.22;100.00
10348;BME280;5220;43.192;23.284;2023-11-21T00:04:44;96738.53;;;9.27;100.00
10348;BME280;5220;43.192;23.284;2023-11-21T00:07:11;96727.56;;;9.24;100.00
10348;BME280;5220;43.192;23.284;2023-11-21T00:09:37;96730.16;;;9.24;100.00
10348;BME280;5220;43.192;23.284;2023-11-21T00:12:04;96718.72;;;9.26;100.00
10348;BME280;5220;43.192;23.284;2023-11-21T00:14:31;96719.53;;;9.27;100.00
10348;BME280;5220;43.192;23.284;2023-11-21T00:17:00;96717.78;;;9.27;100.00
10348;BME280;5220;43.192;23.284;2023-11-21T00:19:27;96723.06;;;9.26;100.00
10348;BME280;5220;43.192;23.284;2023-11-21T00:21:53;96711.75;;;9.27;100.00
10348;BME280;5220;43.192;23.284;2023-11-21T00:24:20;96715.91;;;9.29;100.00
10348;BME280;5220;43.192;23.284;2023-11-21T00:26:47;96717.69;;;9.16;100.00
10348;BME280;5220;43.192;23.284;2023-11-21T00:29:14;96712.63;;;9.14;100.00
10348;BME280;5220;43.192;23.284;2023-11-21T00:31:42;96713.47;;;9.15;100.00
10348;BME280;5220;43.192;23.284;2023-11-21T00:34:11;96714.50;;;9.12;100.00
10348;BME280;5220;43.192;23.284;2023-11-21T00:36:37;96715.31;;;9.13;100.00
10348;BME280;5220;43.192;23.284;2023-11-21T00:39:04;96719.47;;;9.15;100.00
10348;BME280;5220;43.192;23.284;2023-11-21T00:41:31;96725.59;;;9.14;100.00
10348;BME280;5220;43.192;23.284;2023-11-21T00:43:58;96716.16;;;9.13;100.00
10348;BME280;5220;43.192;23.284;2023-11-21T00:46:25;96719.31;;;9.06;100.00
10348;BME280;5220;43.192;23.284;2023-11-21T00:48:52;96709.41;;;8.87;100.00
10348;BME280;5220;43.192;23.284;2023-11-21T00:51:20;96702.28;;;9.02;100.00
10348;BME280;5220;43.192;23.284;2023-11-21T00:53:47;96709.88;;;9.05;100.00
10348;BME280;5220;43.192;23.284;2023-11-21T00:56:14;96707.03;;;9.08;100.00
10348;BME280;5220;43.192;23.284;2023-11-21T00:58:41;96712.03;;;9.11;100.00
10348;BME280;5220;43.192;23.284;2023-11-21T01:01:09;96707.75;;;9.10;100.00
10348;BME280;5220;43.192;23.284;2023-11-21T01:03:35;96707.75;;;9.10;100.00
10348;BME280;5220;43.192;23.284;2023-11-21T01:06:03;96700.72;;;9.12;100.00
10348;BME280;5220;43.192;23.284;2023-11-21T01:08:31;96695.97;;;9.06;100.00
10348;BME280;5220;43.192;23.284;2023-11-21T01:10:58;96690.56;;;9.09;100.00
10348;BME280;5220;43.192;23.284;2023-11-21T01:13:25;96684.53;;;9.08;100.00
10348;BME280;5220;43.192;23.284;2023-11-21T01:15:53;96689.28;;;9.14;100.00
10348;BME280;5220;43.192;23.284;2023-11-21T01:18:20;96691.75;;;9.16;100.00
10348;BME280;5220;43.192;23.284;2023-11-21T01:20:47;96702.47;;;9.11;100.00
10348;BME280;5220;43.192;23.284;2023-11-21T01:23:13;96705.97;;;8.87;100.00
10348;BME280;5220;43.192;23.284;2023-11-21T01:25:42;96700.22;;;8.94;100.00
10348;BME280;5220;43.192;23.284;2023-11-21T01:28:08;96699.09;;;8.98;100.00
10348;BME280;5220;43.192;23.284;2023-11-21T01:30:35;96694.28;;;9.05;100.00
10348;BME280;5220;43.192;23.284;2023-11-21T01:33:02;96690.34;;;9.12;100.00
10348;BME280;5220;43.192;23.284;2023-11-21T01:35:29;96697.78;;;9.16;100.00
10348;BME280;5220;43.192;23.284;2023-11-21T01:37:56;96686.34;;;9.19;100.00
10348;BME280;5220;43.192;23.284;2023-11-21T01:40:23;96689.78;;;9.19;100.00
10348;BME280;5220;43.192;23.284;2023-11-21T01:42:53;96686.84;;;9.24;100.00
10348;BME280;5220;43.192;23.284;2023-11-21T01:45:20;96688.50;;;9.25;100.00
10348;BME280;5220;43.192;23.284;2023-11-21T01:47:46;96684.88;;;9.28;100.00
10348;BME280;5220;43.192;23.284;2023-11-21T01:50:15;96683.91;;;9.29;100.00
10348;BME280;5220;43.192;23.284;2023-11-21T01:52:44;96679.69;;;9.28;100.00
10348;BME280;5220;43.192;23.284;2023-11-21T01:55:11;96679.06;;;9.24;100.00
10348;BME280;5220;43.192;23.284;2023-11-21T01:57:38;96678.00;;;9.27;100.00
10348;BME280;5220;43.192;23.284;2023-11-21T02:00:08;96672.91;;;9.25;100.00
10348;BME280;5220;43.192;23.284;2023-11-21T02:02:42;96669.41;;;9.26;100.00
10348;BME280;5220;43.192;23.284;2023-11-21T02:05:09;96669.22;;;9.16;100.00
10348;BME280;5220;43.192;23.284;2023-11-21T02:07:38;96673.03;;;9.24;100.00
10348;BME280;5220;43.192;23.284;2023-11-21T02:10:06;96674.50;;;9.28;100.00
10348;BME280;5220;43.192;23.284;2023-11-21T02:12:33;96666.56;;;9.29;100.00
10348;BME280;5220;43.192;23.284;2023-11-21T02:15:00;96665.66;;;9.30;100.00
10348;BME280;5220;43.192;23.284;2023-11-21T02:17:28;96661.38;;;9.29;100.00
10348;BME280;5220;43.192;23.284;2023-11-21T02:19:55;96674.59;;;9.26;100.00
10348;BME280;5220;43.192;23.284;2023-11-21T02:22:22;96683.81;;;9.30;100.00
10348;BME280;5220;43.192;23.284;2023-11-21T02:24:53;96679.47;;;9.31;100.00
10348;BME280;5220;43.192;23.284;2023-11-21T02:27:20;96680.88;;;9.35;100.00
10348;BME280;5220;43.192;23.284;2023-11-21T02:29:49;96686.91;;;9.35;100.00
10348;BME280;5220;43.192;23.284;2023-11-21T02:32:16;96692.94;;;9.36;100.00
10348;BME280;5220;43.192;23.284;2023-11-21T02:34:44;96688.72;;;9.22;100.00
10348;BME280;5220;43.192;23.284;2023-11-21T02:37:11;96692.66;;;9.28;100.00
10348;BME280;5220;43.192;23.284;2023-11-21T02:39:38;96689.22;;;9.27;100.00
10348;BME280;5220;43.192;23.284;2023-11-21T02:42:06;96689.94;;;9.29;100.00
10348;BME280;5220;43.192;23.284;2023-11-21T02:44:34;96687.25;;;9.31;100.00
10348;BME280;5220;43.192;23.284;2023-11-21T02:47:01;96686.50;;;9.29;100.00
10348;BME280;5220;43.192;23.284;2023-11-21T02:49:29;96682.50;;;9.25;100.00
10348;BME280;5220;43.192;23.284;2023-11-21T02:51:56;96679.50;;;9.18;100.00
10348;BME280;5220;43.192;23.284;2023-11-21T02:54:23;96683.44;;;9.24;100.00
10348;BME280;5220;43.192;23.284;2023-11-21T02:56:49;96678.72;;;9.29;100.00
10348;BME280;5220;43.192;23.284;2023-11-21T02:59:17;96668.34;;;9.29;100.00
10348;BME280;5220;43.192;23.284;2023-11-21T03:01:44;96661.06;;;9.34;100.00
10348;BME280;5220;43.192;23.284;2023-11-21T03:04:11;96667.81;;;9.36;100.00
10348;BME280;5220;43.192;23.284;2023-11-21T03:06:43;96659.88;;;9.38;100.00
10348;BME280;5220;43.192;23.284;2023-11-21T03:09:09;96667.06;;;9.34;100.00
10348;BME280;5220;43.192;23.284;2023-11-21T03:11:37;96679.78;;;9.26;100.00
10348;BME280;5220;43.192;23.284;2023-11-21T03:14:04;96677.88;;;9.28;100.00
10348;BME280;5220;43.192;23.284;2023-11-21T03:16:32;96677.56;;;9.33;100.00
10348;BME280;5220;43.192;23.284;2023-11-21T03:18:58;96659.50;;;9.31;100.00
10348;BME280;5220;43.192;23.284;2023-11-21T03:21:25;96650.91;;;9.31;100.00
10348;BME280;5220;43.192;23.284;2023-11-21T03:23:52;96651.63;;;9.33;100.00
10348;BME280;5220;43.192;23.284;2023-11-21T03:26:19;96644.66;;;9.33;100.00
10348;BME280;5220;43.192;23.284;2023-11-21T03:28:46;96638.16;;;9.28;100.00
10348;BME280;5220;43.192;23.284;2023-11-21T03:31:12;96636.25;;;9.30;100.00
10348;BME280;5220;43.192;23.284;2023-11-21T03:33:40;96634.72;;;9.27;100.00
10348;BME280;5220;43.192;23.284;2023-11-21T03:36:08;96637.31;;;9.27;100.00
10348;BME280;5220;43.192;23.284;2023-11-21T03:38:35;96635.03;;;9.23;100.00
10348;BME280;5220;43.192;23.284;2023-11-21T03:41:02;96636.31;;;9.17;100.00
10348;BME280;5220;43.192;23.284;2023-11-21T03:43:29;96646.34;;;9.22;100.00
10348;BME280;5220;43.192;23.284;2023-11-21T03:45:55;96651.53;;;9.22;100.00
10348;BME280;5220;43.192;23.284;2023-11-21T03:48:22;96655.94;;;9.21;100.00
10348;BME280;5220;43.192;23.284;2023-11-21T03:50:50;96665.47;;;9.21;100.00
10348;BME280;5220;43.192;23.284;2023-11-21T03:53:17;96664.66;;;9.20;100.00
10348;BME280;5220;43.192;23.284;2023-11-21T03:55:44;96665.09;;;9.14;100.00
10348;BME280;5220;43.192;23.284;2023-11-21T03:58:10;96661.78;;;9.12;100.00
10348;BME280;5220;43.192;23.284;2023-11-21T04:00:37;96660.75;;;9.14;100.00
10348;BME280;5220;43.192;23.284;2023-11-21T04:03:04;96664.59;;;9.09;100.00
10348;BME280;5220;43.192;23.284;2023-11-21T04:05:31;96663.34;;;9.14;100.00
10348;BME280;5220;43.192;23.284;2023-11-21T04:07:59;96656.16;;;9.18;100.00
10348;BME280;5220;43.192;23.284;2023-11-21T04:10:26;96656.03;;;9.19;100.00
10348;BME280;5220;43.192;23.284;2023-11-21T04:12:53;96661.22;;;9.19;100.00
10348;BME280;5220;43.192;23.284;2023-11-21T04:15:20;96663.09;;;9.17;100.00
10348;BME280;5220;43.192;23.284;2023-11-21T04:17:47;96665.56;;;9.19;100.00
10348;BME280;5220;43.192;23.284;2023-11-21T04:20:15;96659.34;;;9.22;100.00
10348;BME280;5220;43.192;23.284;2023-11-21T04:22:43;96661.00;;;9.23;100.00
10348;BME280;5220;43.192;23.284;2023-11-21T04:25:14;96658.00;;;9.16;100.00
10348;BME280;5220;43.192;23.284;2023-11-21T04:27:42;96654.59;;;9.15;100.00
10348;BME280;5220;43.192;23.284;2023-11-21T04:30:11;96656.88;;;9.20;100.00
10348;BME280;5220;43.192;23.284;2023-11-21T04:32:38;96647.63;;;9.16;100.00
10348;BME280;5220;43.192;23.284;2023-11-21T04:35:06;96658.84;;;9.16;100.00
10348;BME280;5220;43.192;23.284;2023-11-21T04:37:34;96657.09;;;9.17;100.00
10348;BME280;5220;43.192;23.284;2023-11-21T04:40:01;96656.03;;;9.19;100.00
10348;BME280;5220;43.192;23.284;2023-11-21T04:42:35;96644.72;;;9.21;100.00
10348;BME280;5220;43.192;23.284;2023-11-21T04:45:03;96642.44;;;9.16;100.00
10348;BME280;5220;43.192;23.284;2023-11-21T04:47:33;96646.00;;;9.15;100.00
10348;BME280;5220;43.192;23.284;2023-11-21T04:50:00;96645.78;;;9.18;100.00
10348;BME280;5220;43.192;23.284;2023-11-21T04:52:26;96646.47;;;9.20;100.00
10348;BME280;5220;43.192;23.284;2023-11-21T04:54:53;96643.56;;;9.25;100.00
10348;BME280;5220;43.192;23.284;2023-11-21T04:57:21;96642.00;;;9.22;100.00
10348;BME280;5220;43.192;23.284;2023-11-21T04:59:49;96631.28;;;9.27;100.00
10348;BME280;5220;43.192;23.284;2023-11-21T05:02:16;96630.47;;;9.26;100.00
10348;BME280;5220;43.192;23.284;2023-11-21T05:04:44;96621.97;;;9.24;100.00
10348;BME280;5220;43.192;23.284;2023-11-21T05:07:11;96626.94;;;9.27;100.00
10348;BME280;5220;43.192;23.284;2023-11-21T05:09:41;96626.94;;;9.27;100.00
10348;BME280;5220;43.192;23.284;2023-11-21T05:12:09;96628.94;;;9.24;100.00
10348;BME280;5220;43.192;23.284;2023-11-21T05:14:36;96625.72;;;9.20;100.00
10348;BME280;5220;43.192;23.284;2023-11-21T05:17:05;96632.34;;;9.24;100.00
10348;BME280;5220;43.192;23.284;2023-11-21T05:19:33;96627.72;;;9.16;100.00
10348;BME280;5220;43.192;23.284;2023-11-21T05:22:00;96638.81;;;8.58;100.00
10348;BME280;5220;43.192;23.284;2023-11-21T05:24:27;96645.25;;;8.89;100.00
10348;BME280;5220;43.192;23.284;2023-11-21T05:26:54;96647.06;;;9.00;100.00
10348;BME280;5220;43.192;23.284;2023-11-21T05:29:21;96642.66;;;8.89;100.00
10348;BME280;5220;43.192;23.284;2023-11-21T05:31:48;96639.06;;;9.03;100.00
10348;BME280;5220;43.192;23.284;2023-11-21T05:34:16;96653.31;;;8.97;100.00
10348;BME280;5220;43.192;23.284;2023-11-21T05:36:43;96645.75;;;8.58;100.00
10348;BME280;5220;43.192;23.284;2023-11-21T05:39:11;96647.16;;;8.87;100.00
10348;BME280;5220;43.192;23.284;2023-11-21T05:41:37;96642.94;;;8.97;100.00
10348;BME280;5220;43.192;23.284;2023-11-21T05:44:04;96643.47;;;9.02;100.00
10348;BME280;5220;43.192;23.284;2023-11-21T05:46:31;96637.03;;;8.72;100.00
10348;BME280;5220;43.192;23.284;2023-11-21T05:48:58;96627.19;;;8.88;100.00
10348;BME280;5220;43.192;23.284;2023-11-21T05:51:26;96629.75;;;9.00;100.00
10348;BME280;5220;43.192;23.284;2023-11-21T05:53:53;96626.09;;;9.03;100.00
10348;BME280;5220;43.192;23.284;2023-11-21T05:56:20;96623.44;;;9.15;100.00
10348;BME280;5220;43.192;23.284;2023-11-21T05:58:47;96624.06;;;9.19;100.00
10348;BME280;5220;43.192;23.284;2023-11-21T06:01:13;96634.94;;;9.24;100.00
10348;BME280;5220;43.192;23.284;2023-11-21T06:03:40;96639.09;;;9.27;100.00
10348;BME280;5220;43.192;23.284;2023-11-21T06:06:07;96644.06;;;9.30;100.00
10348;BME280;5220;43.192;23.284;2023-11-21T06:08:36;96655.25;;;9.30;100.00
10348;BME280;5220;43.192;23.284;2023-11-21T06:11:02;96652.81;;;9.16;100.00
10348;BME280;5220;43.192;23.284;2023-11-21T06:13:29;96660.28;;;9.21;100.00
10348;BME280;5220;43.192;23.284;2023-11-21T06:15:56;96654.31;;;9.31;100.00
10348;BME280;5220;43.192;23.284;2023-11-21T06:18:22;96655.66;;;9.37;100.00
10348;BME280;5220;43.192;23.284;2023-11-21T06:20:49;96656.13;;;9.42;100.00
10348;BME280;5220;43.192;23.284;2023-11-21T06:23:18;96662.41;;;9.50;100.00
10348;BME280;5220;43.192;23.284;2023-11-21T06:25:46;96656.16;;;9.53;100.00
10348;BME280;5220;43.192;23.284;2023-11-21T06:28:13;96658.22;;;9.60;100.00
10348;BME280;5220;43.192;23.284;2023-11-21T06:30:42;96655.16;;;9.66;100.00
10348;BME280;5220;43.192;23.284;2023-11-21T06:33:10;96644.22;;;9.74;100.00
10348;BME280;5220;43.192;23.284;2023-11-21T06:35:37;96644.34;;;9.84;100.00
10348;BME280;5220;43.192;23.284;2023-11-21T06:38:03;96648.44;;;9.75;100.00
10348;BME280;5220;43.192;23.284;2023-11-21T06:40:30;96651.69;;;9.90;100.00
10348;BME280;5220;43.192;23.284;2023-11-21T06:43:00;96642.47;;;9.86;100.00
10348;BME280;5220;43.192;23.284;2023-11-21T06:45:27;96635.16;;;10.02;100.00
10348;BME280;5220;43.192;23.284;2023-11-21T06:47:54;96643.66;;;9.93;100.00
10348;BME280;5220;43.192;23.284;2023-11-21T06:50:20;96649.56;;;10.06;100.00
10348;BME280;5220;43.192;23.284;2023-11-21T06:52:47;96646.19;;;10.16;100.00
10348;BME280;5220;43.192;23.284;2023-11-21T06:55:15;96641.81;;;10.28;100.00
10348;BME280;5220;43.192;23.284;2023-11-21T06:57:42;96649.38;;;10.31;100.00
10348;BME280;5220;43.192;23.284;2023-11-21T07:00:12;96652.81;;;10.20;100.00
10348;BME280;5220;43.192;23.284;2023-11-21T07:02:40;96642.31;;;10.33;100.00
10348;BME280;5220;43.192;23.284;2023-11-21T07:05:07;96601.50;;;11.10;100.00
10348;BME280;5220;43.192;23.284;2023-11-21T07:07:33;96630.03;;;11.00;100.00
10348;BME280;5220;43.192;23.284;2023-11-21T07:10:01;96632.19;;;10.84;100.00
10348;BME280;5220;43.192;23.284;2023-11-21T07:12:28;96636.13;;;10.90;100.00
10348;BME280;5220;43.192;23.284;2023-11-21T07:14:56;96636.78;;;11.03;100.00
10348;BME280;5220;43.192;23.284;2023-11-21T07:17:24;96637.84;;;11.11;100.00
10348;BME280;5220;43.192;23.284;2023-11-21T07:19:51;96636.03;;;11.23;100.00
10348;BME280;5220;43.192;23.284;2023-11-21T07:22:18;96642.59;;;11.38;100.00
10348;BME280;5220;43.192;23.284;2023-11-21T07:24:48;96634.59;;;11.51;100.00
10348;BME280;5220;43.192;23.284;2023-11-21T07:27:15;96635.09;;;11.13;100.00
10348;BME280;5220;43.192;23.284;2023-11-21T07:29:42;96629.63;;;11.27;100.00
10348;BME280;5220;43.192;23.284;2023-11-21T07:32:08;96632.31;;;11.57;100.00
10348;BME280;5220;43.192;23.284;2023-11-21T07:34:37;96636.75;;;11.77;100.00
10348;BME280;5220;43.192;23.284;2023-11-21T07:37:03;96635.34;;;11.94;100.00
10348;BME280;5220;43.192;23.284;2023-11-21T07:39:30;96635.84;;;12.09;100.00
10348;BME280;5220;43.192;23.284;2023-11-21T07:41:57;96631.41;;;12.20;100.00
10348;BME280;5220;43.192;23.284;2023-11-21T07:44:23;96632.13;;;12.32;100.00
10348;BME280;5220;43.192;23.284;2023-11-21T07:46:51;96635.88;;;12.39;100.00
10348;BME280;5220;43.192;23.284;2023-11-21T07:49:22;96626.44;;;12.48;100.00
10348;BME280;5220;43.192;23.284;2023-11-21T07:51:50;96634.59;;;12.64;100.00
10348;BME280;5220;43.192;23.284;2023-11-21T07:54:17;96624.72;;;12.77;100.00
10348;BME280;5220;43.192;23.284;2023-11-21T07:56:44;96619.97;;;12.91;100.00
10348;BME280;5220;43.192;23.284;2023-11-21T07:59:11;96615.84;;;12.99;100.00
10348;BME280;5220;43.192;23.284;2023-11-21T08:01:39;96609.44;;;13.12;100.00
10348;BME280;5220;43.192;23.284;2023-11-21T08:04:08;96601.19;;;13.26;100.00
10348;BME280;5220;43.192;23.284;2023-11-21T08:06:35;96608.91;;;13.37;100.00
10348;BME280;5220;43.192;23.284;2023-11-21T08:09:03;96604.91;;;13.43;100.00
10348;BME280;5220;43.192;23.284;2023-11-21T08:11:30;96608.47;;;13.61;100.00
10348;BME280;5220;43.192;23.284;2023-11-21T08:13:58;96607.63;;;13.80;100.00
10348;BME280;5220;43.192;23.284;2023-11-21T08:16:25;96608.84;;;13.95;97.38
10348;BME280;5220;43.192;23.284;2023-11-21T08:18:52;96609.38;;;14.08;96.67
10348;BME280;5220;43.192;23.284;2023-11-21T08:21:19;96608.09;;;14.22;95.87
10348;BME280;5220;43.192;23.284;2023-11-21T08:23:46;96599.69;;;14.28;93.14
10348;BME280;5220;43.192;23.284;2023-11-21T08:26:20;96604.22;;;14.35;88.17
10348;BME280;5220;43.192;23.284;2023-11-21T08:28:47;96597.97;;;14.46;87.58
10348;BME280;5220;43.192;23.284;2023-11-21T08:31:14;96599.06;;;14.53;86.92
10348;BME280;5220;43.192;23.284;2023-11-21T08:33:41;96594.38;;;14.57;87.67
10348;BME280;5220;43.192;23.284;2023-11-21T08:36:08;96593.91;;;14.61;83.49
10348;BME280;5220;43.192;23.284;2023-11-21T08:38:36;96580.63;;;14.45;71.70
10348;BME280;5220;43.192;23.284;2023-11-21T08:41:05;96599.56;;;14.66;72.45
10348;BME280;5220;43.192;23.284;2023-11-21T08:43:35;96585.16;;;14.52;70.49
10348;BME280;5220;43.192;23.284;2023-11-21T08:46:05;96586.47;;;14.66;74.59
10348;BME280;5220;43.192;23.284;2023-11-21T08:48:34;96579.47;;;14.84;70.94
10348;BME280;5220;43.192;23.284;2023-11-21T08:51:01;96571.09;;;14.98;71.40
10348;BME280;5220;43.192;23.284;2023-11-21T08:53:29;96577.09;;;15.08;68.76
10348;BME280;5220;43.192;23.284;2023-11-21T08:55:56;96572.44;;;14.85;67.03
10348;BME280;5220;43.192;23.284;2023-11-21T08:58:22;96568.88;;;15.03;63.50
10348;BME280;5220;43.192;23.284;2023-11-21T09:00:50;96568.03;;;15.21;89.41
10348;BME280;5220;43.192;23.284;2023-11-21T09:03:17;96564.78;;;15.44;76.80
10348;BME280;5220;43.192;23.284;2023-11-21T09:05:44;96558.09;;;15.59;65.97
10348;BME280;5220;43.192;23.284;2023-11-21T09:08:11;96565.19;;;15.67;71.79
10348;BME280;5220;43.192;23.284;2023-11-21T09:10:37;96545.84;;;15.68;61.40
10348;BME280;5220;43.192;23.284;2023-11-21T09:13:06;96549.41;;;15.85;62.81
10348;BME280;5220;43.192;23.284;2023-11-21T09:15:34;96538.50;;;15.97;74.13
10348;BME280;5220;43.192;23.284;2023-11-21T09:18:02;96535.19;;;15.87;58.96
10348;BME280;5220;43.192;23.284;2023-11-21T09:20:30;96528.63;;;15.91;58.57
10348;BME280;5220;43.192;23.284;2023-11-21T09:22:57;96525.75;;;16.02;60.28
10348;BME280;5220;43.192;23.284;2023-11-21T09:25:23;96525.78;;;16.10;62.74
10348;BME280;5220;43.192;23.284;2023-11-21T09:27:50;96521.22;;;16.12;63.74
10348;BME280;5220;43.192;23.284;2023-11-21T09:30:17;96515.97;;;16.12;63.60
10348;BME280;5220;43.192;23.284;2023-11-21T09:32:45;96521.69;;;16.16;65.56
10348;BME280;5220;43.192;23.284;2023-11-21T09:35:14;96499.59;;;16.19;65.28
10348;BME280;5220;43.192;23.284;2023-11-21T09:37:40;96495.00;;;16.21;65.32
10348;BME280;5220;43.192;23.284;2023-11-21T09:40:10;96496.66;;;16.22;60.31
10348;BME280;5220;43.192;23.284;2023-11-21T09:42:42;96478.09;;;16.15;62.00
10348;BME280;5220;43.192;23.284;2023-11-21T09:45:15;96470.03;;;16.17;57.42
10348;BME280;5220;43.192;23.284;2023-11-21T09:47:43;96459.22;;;16.20;57.94
10348;BME280;5220;43.192;23.284;2023-11-21T09:50:11;96457.78;;;16.25;57.60
10348;BME280;5220;43.192;23.284;2023-11-21T09:52:55;96455.81;;;16.27;56.39
10348;BME280;5220;43.192;23.284;2023-11-21T09:55:26;96463.53;;;16.29;55.51
10348;BME280;5220;43.192;23.284;2023-11-21T09:57:54;96452.56;;;16.33;57.07
10348;BME280;5220;43.192;23.284;2023-11-21T10:00:22;96447.31;;;16.33;57.44
10348;BME280;5220;43.192;23.284;2023-11-21T10:02:50;96447.06;;;16.10;56.66
10348;BME280;5220;43.192;23.284;2023-11-21T10:05:18;96432.69;;;15.89;53.17
10348;BME280;5220;43.192;23.284;2023-11-21T10:07:47;96434.28;;;15.74;51.88
10348;BME280;5220;43.192;23.284;2023-11-21T10:10:16;96440.06;;;15.85;53.25
10348;BME280;5220;43.192;23.284;2023-11-21T10:12:49;96440.44;;;15.90;57.10
10348;BME280;5220;43.192;23.284;2023-11-21T10:15:16;96434.38;;;15.98;54.29
10348;BME280;5220;43.192;23.284;2023-11-21T10:17:44;96429.56;;;15.85;52.41
10348;BME280;5220;43.192;23.284;2023-11-21T10:20:13;96429.88;;;15.82;52.69
10348;BME280;5220;43.192;23.284;2023-11-21T10:22:41;96430.00;;;15.73;52.56
10348;BME280;5220;43.192;23.284;2023-11-21T10:25:10;96418.56;;;15.82;51.80
10348;BME280;5220;43.192;23.284;2023-11-21T10:27:40;96433.06;;;15.94;55.21
10348;BME280;5220;43.192;23.284;2023-11-21T10:30:07;96424.00;;;15.88;51.85
10348;BME280;5220;43.192;23.284;2023-11-21T10:32:37;96413.19;;;15.91;53.05
10348;BME280;5220;43.192;23.284;2023-11-21T10:35:05;96397.84;;;16.04;52.90
10348;BME280;5220;43.192;23.284;2023-11-21T10:37:35;96405.25;;;16.09;52.46
10348;BME280;5220;43.192;23.284;2023-11-21T10:40:05;96383.06;;;15.95;50.85
10348;BME280;5220;43.192;23.284;2023-11-21T10:42:33;96384.31;;;15.83;50.98
10348;BME280;5220;43.192;23.284;2023-11-21T10:45:00;96377.09;;;15.85;50.69
10348;BME280;5220;43.192;23.284;2023-11-21T10:47:29;96376.31;;;15.93;51.85
10348;BME280;5220;43.192;23.284;2023-11-21T10:49:57;96372.28;;;16.06;51.16
10348;BME280;5220;43.192;23.284;2023-11-21T10:52:27;96362.75;;;16.13;51.06
10348;BME280;5220;43.192;23.284;2023-11-21T10:54:54;96360.06;;;15.89;51.45
10348;BME280;5220;43.192;23.284;2023-11-21T10:57:22;96362.28;;;15.68;51.87
10348;BME280;5220;43.192;23.284;2023-11-21T10:59:50;96357.13;;;15.84;51.29
10348;BME280;5220;43.192;23.284;2023-11-21T11:02:23;96355.00;;;15.88;51.33
10348;BME280;5220;43.192;23.284;2023-11-21T11:04:53;96350.38;;;15.82;51.42
10348;BME280;5220;43.192;23.284;2023-11-21T11:07:21;96346.50;;;16.02;53.80
10348;BME280;5220;43.192;23.284;2023-11-21T11:09:52;96342.72;;;15.96;52.14
10348;BME280;5220;43.192;23.284;2023-11-21T11:12:19;96343.25;;;16.16;50.65
10348;BME280;5220;43.192;23.284;2023-11-21T11:14:45;96329.47;;;16.22;51.29
10348;BME280;5220;43.192;23.284;2023-11-21T11:17:14;96327.03;;;16.12;50.50
10348;BME280;5220;43.192;23.284;2023-11-21T11:19:41;96333.41;;;16.10;51.24
10348;BME280;5220;43.192;23.284;2023-11-21T11:22:19;96335.38;;;16.16;55.35
10348;BME280;5220;43.192;23.284;2023-11-21T11:25:20;96335.81;;;15.87;53.21
10348;BME280;5220;43.192;23.284;2023-11-21T11:27:55;96345.22;;;16.06;53.46
10348;BME280;5220;43.192;23.284;2023-11-21T11:30:36;96346.19;;;16.05;52.28
10348;BME280;5220;43.192;23.284;2023-11-21T11:33:13;96359.63;;;16.02;53.09
10348;BME280;5220;43.192;23.284;2023-11-21T11:35:53;96358.66;;;16.03;52.21
10348;BME280;5220;43.192;23.284;2023-11-21T11:38:23;96356.81;;;16.03;51.39
10348;BME280;5220;43.192;23.284;2023-11-21T11:40:53;96363.53;;;15.98;51.85
10348;BME280;5220;43.192;23.284;2023-11-21T11:43:25;96361.81;;;15.73;52.46
10348;BME280;5220;43.192;23.284;2023-11-21T11:45:52;96371.44;;;15.64;52.60
10348;BME280;5220;43.192;23.284;2023-11-21T11:48:23;96367.00;;;15.56;52.66
10348;BME280;5220;43.192;23.284;2023-11-21T11:51:03;96369.25;;;15.51;52.74
10348;BME280;5220;43.192;23.284;2023-11-21T11:53:35;96364.69;;;15.53;54.01
10348;BME280;5220;43.192;23.284;2023-11-21T11:56:25;96363.38;;;15.32;53.46
10348;BME280;5220;43.192;23.284;2023-11-21T11:58:54;96349.59;;;15.22;53.50
10348;BME280;5220;43.192;23.284;2023-11-21T12:01:22;96351.00;;;15.42;53.48
10348;BME280;5220;43.192;23.284;2023-11-21T12:04:25;96361.34;;;15.43;54.18
10348;BME280;5220;43.192;23.284;2023-11-21T12:07:03;96348.22;;;15.43;54.88
10348;BME280;5220;43.192;23.284;2023-11-21T12:09:31;96342.53;;;15.48;54.58
10348;BME280;5220;43.192;23.284;2023-11-21T12:11:58;96342.97;;;15.43;54.67
10348;BME280;5220;43.192;23.284;2023-11-21T12:14:26;96342.56;;;15.22;54.33
10348;BME280;5220;43.192;23.284;2023-11-21T12:16:54;96333.03;;;15.21;55.36
10348;BME280;5220;43.192;23.284;2023-11-21T12:19:21;96339.22;;;15.46;56.59
10348;BME280;5220;43.192;23.284;2023-11-21T12:21:50;96333.59;;;15.67;55.98
10348;BME280;5220;43.192;23.284;2023-11-21T12:24:17;96330.34;;;15.73;55.67
10348;BME280;5220;43.192;23.284;2023-11-21T12:26:44;96338.75;;;15.84;55.90
10348;BME280;5220;43.192;23.284;2023-11-21T12:29:11;96326.13;;;15.46;58.04
10348;BME280;5220;43.192;23.284;2023-11-21T12:31:38;96324.38;;;15.54;59.25
10348;BME280;5220;43.192;23.284;2023-11-21T12:34:06;96338.84;;;15.67;61.98
10348;BME280;5220;43.192;23.284;2023-11-21T12:36:34;96322.56;;;15.21;58.24
10348;BME280;5220;43.192;23.284;2023-11-21T12:39:03;96330.94;;;14.99;58.95
10348;BME280;5220;43.192;23.284;2023-11-21T12:41:30;96321.44;;;15.32;59.53
10348;BME280;5220;43.192;23.284;2023-11-21T12:43:57;96321.25;;;15.51;58.98
10348;BME280;5220;43.192;23.284;2023-11-21T12:46:24;96329.50;;;15.38;60.55
10348;BME280;5220;43.192;23.284;2023-11-21T12:48:54;96323.63;;;15.36;61.19
10348;BME280;5220;43.192;23.284;2023-11-21T12:51:21;96324.56;;;15.27;97.98
10348;BME280;5220;43.192;23.284;2023-11-21T12:53:50;96331.13;;;15.31;68.95
10348;BME280;5220;43.192;23.284;2023-11-21T12:56:21;96330.63;;;15.02;74.25
10348;BME280;5220;43.192;23.284;2023-11-21T12:58:49;96333.09;;;14.78;81.85
10348;BME280;5220;43.192;23.284;2023-11-21T13:01:17;96342.72;;;14.77;81.80
10348;BME280;5220;43.192;23.284;2023-11-21T13:03:47;96338.03;;;14.81;86.03
10348;BME280;5220;43.192;23.284;2023-11-21T13:06:17;96347.16;;;15.02;86.16